Time;durP1;ratioP1;P1;durP2;ratioP2;P2;SDS_P1;SDS_P2;PMS_P1;PMS_P2;Temp;Humidity;BMP_temperature;BMP_pressure;BME280_temperature;BME280_humidity;BME280_pressure;Samples;Min_cycle;Max_cycle;Signal;HPM_P1;HPM_P2
2022/03/30 00:01:10;;;;;;;;;;;9.80;99.90;;;;;;4969117;29;19985;-87
2022/03/30 00:03:41;;;;;;;;;;;9.80;99.90;;;;;;4969107;29;19933;-86
2022/03/30 00:06:22;;;;;;;;;;;9.90;99.90;;;;;;4969005;29;19932;-86
2022/03/30 00:08:49;;;;;;;;;;;9.90;99.90;;;;;;4986701;28;20385;-86
2022/03/30 00:11:16;;;;;;;;;;;9.90;99.90;;;;;;4988598;28;19958;-86
2022/03/30 00:13:43;;;;;;;;;;;9.80;99.90;;;;;;4988656;28;19932;-86
2022/03/30 00:16:13;;;;;;;;;;;9.90;99.90;;;;;;4988543;28;19930;-86
2022/03/30 00:18:43;;;;;;;;;;;9.90;99.90;;;;;;4988206;28;20698;-86
2022/03/30 00:21:13;;;;;;;;;;;9.70;99.90;;;;;;4987251;28;19926;-86
2022/03/30 00:23:42;;;;;;;;;;;9.90;99.90;;;;;;4988191;28;19997;-86
2022/03/30 00:26:14;;;;;;;;;;;10.10;99.90;;;;;;4988148;28;19929;-86
2022/03/30 00:28:47;;;;;;;;;;;10.10;99.90;;;;;;4987939;28;19926;-89
2022/03/30 00:31:17;;;;;;;;;;;10.30;99.90;;;;;;4987776;28;19926;-86
2022/03/30 00:33:48;;;;;;;;;;;10.50;99.90;;;;;;4988053;28;19926;-87
2022/03/30 00:36:20;;;;;;;;;;;10.90;99.90;;;;;;4987968;28;19926;-89
2022/03/30 00:38:48;;;;;;;;;;;10.40;99.90;;;;;;4987639;28;19930;-88
2022/03/30 00:41:15;;;;;;;;;;;10.40;99.90;;;;;;4987653;28;19926;-89
2022/03/30 00:43:42;;;;;;;;;;;9.90;99.90;;;;;;4987610;28;19926;-88
2022/03/30 00:46:11;;;;;;;;;;;10.40;99.90;;;;;;4987728;28;19926;-88
2022/03/30 00:48:38;;;;;;;;;;;10.40;99.90;;;;;;4987682;28;19932;-88
2022/03/30 00:51:05;;;;;;;;;;;10.30;99.90;;;;;;4987527;28;19933;-88
2022/03/30 00:53:33;;;;;;;;;;;10.20;99.90;;;;;;4987390;28;19926;-88
2022/03/30 00:56:00;;;;;;;;;;;10.20;99.90;;;;;;4987556;28;20444;-88
2022/03/30 00:58:30;;;;;;;;;;;10.30;99.90;;;;;;4987804;28;19937;-87
2022/03/30 01:03:39;;;;;;;;;;;10.10;99.90;;;;;;4987485;28;19930;-88
2022/03/30 01:06:07;;;;;;;;;;;9.90;99.90;;;;;;4972599;28;19930;-87
2022/03/30 01:08:36;;;;;;;;;;;10.20;99.90;;;;;;4969162;29;19926;-87
2022/03/30 01:11:04;;;;;;;;;;;10.30;99.90;;;;;;4984920;28;20553;-88
2022/03/30 01:13:31;;;;;;;;;;;10.40;99.90;;;;;;4987864;28;19927;-87
2022/03/30 01:15:58;;;;;;;;;;;10.50;99.90;;;;;;4987133;28;19993;-87
2022/03/30 01:18:27;;;;;;;;;;;10.30;99.90;;;;;;4986719;28;19933;-88
2022/03/30 01:20:57;;;;;;;;;;;10.30;99.90;;;;;;4987485;28;19926;-88
2022/03/30 01:23:26;;;;;;;;;;;10.20;99.90;;;;;;4987420;28;19926;-89
2022/03/30 01:25:57;;;;;;;;;;;10.10;99.90;;;;;;4972953;28;19950;-87
2022/03/30 01:28:28;;;;;;;;;;;10.00;99.90;;;;;;4968172;29;20373;-87
2022/03/30 01:33:45;;;;;;;;;;;10.00;99.90;;;;;;4968109;29;19950;-87
2022/03/30 01:36:25;;;;;;;;;;;10.40;99.90;;;;;;4970047;28;20006;-88
2022/03/30 01:38:57;;;;;;;;;;;9.50;99.90;;;;;;4968297;29;19927;-88
2022/03/30 01:41:25;;;;;;;;;;;9.90;99.90;;;;;;4968383;29;19954;-87
2022/03/30 01:43:52;;;;;;;;;;;10.30;99.90;;;;;;4968079;29;19926;-87
2022/03/30 01:46:26;;;;;;;;;;;9.80;99.90;;;;;;4968480;28;19945;-87
2022/03/30 01:48:58;;;;;;;;;;;10.00;99.90;;;;;;4968164;29;19927;-88
2022/03/30 01:51:32;;;;;;;;;;;9.90;99.90;;;;;;4968076;29;20013;-89
2022/03/30 01:54:00;;;;;;;;;;;9.90;99.90;;;;;;4973115;28;19926;-87
2022/03/30 01:56:29;;;;;;;;;;;9.80;99.90;;;;;;4985272;28;19930;-87
2022/03/30 01:58:56;;;;;;;;;;;9.50;99.90;;;;;;4971415;29;19926;-87
2022/03/30 02:01:26;;;;;;;;;;;9.50;99.90;;;;;;4976469;28;19933;-88
2022/03/30 02:03:56;;;;;;;;;;;9.30;99.90;;;;;;4990030;28;19926;-88
2022/03/30 02:06:27;;;;;;;;;;;9.60;99.90;;;;;;4988938;28;19927;-87
2022/03/30 02:08:57;;;;;;;;;;;9.30;99.90;;;;;;4973113;28;19950;-87
2022/03/30 02:11:27;;;;;;;;;;;9.40;99.90;;;;;;4990679;28;19926;-87
2022/03/30 02:13:54;;;;;;;;;;;9.30;99.90;;;;;;5000583;23;19962;-87
2022/03/30 02:16:25;;;;;;;;;;;9.30;99.90;;;;;;4990461;28;19926;-88
2022/03/30 02:18:53;;;;;;;;;;;9.20;99.90;;;;;;4990795;28;19932;-87
2022/03/30 02:21:24;;;;;;;;;;;9.20;99.90;;;;;;4990496;28;19950;-87
2022/03/30 02:23:51;;;;;;;;;;;9.10;99.90;;;;;;4983291;28;19950;-87
2022/03/30 02:26:21;;;;;;;;;;;9.00;99.90;;;;;;4971187;29;19931;-87
2022/03/30 02:28:51;;;;;;;;;;;9.00;99.90;;;;;;4971093;29;19937;-87
2022/03/30 02:31:20;;;;;;;;;;;9.10;99.90;;;;;;4970794;29;19931;-87
2022/03/30 02:33:47;;;;;;;;;;;6.90;99.90;;;;;;4970746;29;19930;-87
2022/03/30 02:36:14;;;;;;;;;;;8.50;99.90;;;;;;4970774;29;20050;-87
2022/03/30 02:38:44;;;;;;;;;;;8.60;99.90;;;;;;4970469;29;20289;-87
2022/03/30 02:41:13;;;;;;;;;;;8.70;99.90;;;;;;4970596;28;20273;-87
2022/03/30 02:43:43;;;;;;;;;;;8.40;99.90;;;;;;4970457;29;19965;-87
2022/03/30 02:46:10;;;;;;;;;;;8.40;99.90;;;;;;4970326;29;19927;-87
2022/03/30 02:48:38;;;;;;;;;;;7.70;99.90;;;;;;4970516;28;19926;-87
2022/03/30 02:51:08;;;;;;;;;;;8.40;99.90;;;;;;4970252;29;19937;-87
2022/03/30 02:53:36;;;;;;;;;;;8.40;99.90;;;;;;4970202;29;19937;-86
2022/03/30 02:56:03;;;;;;;;;;;8.40;99.90;;;;;;4970310;29;19926;-87
2022/03/30 02:58:31;;;;;;;;;;;8.50;99.90;;;;;;4973982;28;19933;-87
2022/03/30 03:01:02;;;;;;;;;;;8.70;99.90;;;;;;4985187;28;20173;-87
2022/03/30 03:03:29;;;;;;;;;;;8.40;99.90;;;;;;4979013;28;19930;-87
2022/03/30 03:05:57;;;;;;;;;;;8.80;99.90;;;;;;4989347;28;19930;-88
2022/03/30 03:08:27;;;;;;;;;;;8.60;99.90;;;;;;4988680;28;19926;-87
2022/03/30 03:10:57;;;;;;;;;;;8.60;99.90;;;;;;4989561;28;19980;-87
2022/03/30 03:13:26;;;;;;;;;;;8.50;99.90;;;;;;4990034;28;19933;-87
2022/03/30 03:15:53;;;;;;;;;;;8.00;99.90;;;;;;4990321;28;19926;-88
2022/03/30 03:18:21;;;;;;;;;;;8.50;99.90;;;;;;4989260;28;19935;-87
2022/03/30 03:20:48;;;;;;;;;;;8.40;99.90;;;;;;4989680;28;19929;-87
2022/03/30 03:23:15;;;;;;;;;;;8.50;99.90;;;;;;4989132;28;19926;-87
2022/03/30 03:25:43;;;;;;;;;;;8.50;99.90;;;;;;4989096;28;19981;-87
2022/03/30 03:28:10;;;;;;;;;;;8.50;99.90;;;;;;4989070;28;19933;-87
2022/03/30 03:30:37;;;;;;;;;;;8.50;99.90;;;;;;4985735;28;19926;-87
2022/03/30 03:33:04;;;;;;;;;;;8.50;99.90;;;;;;4969645;29;19933;-87
2022/03/30 03:35:32;;;;;;;;;;;8.50;99.90;;;;;;4969596;29;19933;-87
2022/03/30 03:37:59;;;;;;;;;;;8.30;99.90;;;;;;4969439;29;19926;-87
2022/03/30 03:40:30;;;;;;;;;;;8.70;99.90;;;;;;4969602;29;19927;-87
2022/03/30 03:42:57;;;;;;;;;;;8.70;99.90;;;;;;4969848;28;19969;-87
2022/03/30 03:45:24;;;;;;;;;;;8.50;99.90;;;;;;4969289;29;19972;-87
2022/03/30 03:47:51;;;;;;;;;;;8.70;99.90;;;;;;4969470;29;19933;-87
2022/03/30 03:50:19;;;;;;;;;;;8.80;99.90;;;;;;4969604;29;19930;-87
2022/03/30 03:52:55;;;;;;;;;;;8.50;99.90;;;;;;4975535;28;19930;-87
2022/03/30 03:55:23;;;;;;;;;;;8.60;99.90;;;;;;4988507;28;19934;-86
2022/03/30 03:57:50;;;;;;;;;;;8.70;99.90;;;;;;4988581;28;19930;-87
2022/03/30 04:00:18;;;;;;;;;;;8.80;99.90;;;;;;4988673;28;19926;-87
2022/03/30 04:02:49;;;;;;;;;;;8.60;99.90;;;;;;4976313;28;19934;-87
2022/03/30 04:07:58;;;;;;;;;;;8.50;99.90;;;;;;4988352;28;19930;-87
2022/03/30 04:10:25;;;;;;;;;;;8.40;99.90;;;;;;4988529;28;19926;-87
2022/03/30 04:12:52;;;;;;;;;;;9.40;99.90;;;;;;4981398;28;19926;-87
2022/03/30 04:15:19;;;;;;;;;;;9.00;99.90;;;;;;4969137;29;19931;-87
2022/03/30 04:17:48;;;;;;;;;;;9.20;99.90;;;;;;4969034;29;20017;-87
2022/03/30 04:20:19;;;;;;;;;;;8.80;99.90;;;;;;4943420;29;19933;-87
2022/03/30 04:22:55;;;;;;;;;;;7.70;99.90;;;;;;4974676;28;19936;-87
2022/03/30 04:28:07;;;;;;;;;;;8.90;99.90;;;;;;4968596;29;19926;-88
2022/03/30 04:30:37;;;;;;;;;;;8.70;99.90;;;;;;4968649;29;19966;-87
2022/03/30 04:33:09;;;;;;;;;;;8.70;99.90;;;;;;4968696;29;19966;-87
2022/03/30 04:35:45;;;;;;;;;;;8.70;99.90;;;;;;4982291;28;19964;-87
2022/03/30 04:38:12;;;;;;;;;;;8.80;99.90;;;;;;4970578;28;19926;-88
2022/03/30 04:40:43;;;;;;;;;;;8.60;99.90;;;;;;4988340;28;19934;-86
2022/03/30 04:43:13;;;;;;;;;;;8.70;99.90;;;;;;4988412;28;19977;-87
2022/03/30 04:45:40;;;;;;;;;;;9.00;99.90;;;;;;4988236;28;19930;-87
2022/03/30 04:48:08;;;;;;;;;;;9.10;99.90;;;;;;4974034;28;19926;-87
2022/03/30 04:50:36;;;;;;;;;;;8.70;99.90;;;;;;4968604;29;19927;-87
2022/03/30 04:53:04;;;;;;;;;;;8.70;99.90;;;;;;4968073;29;19951;-87
2022/03/30 04:55:32;;;;;;;;;;;8.70;99.90;;;;;;4968276;29;19933;-87
2022/03/30 04:58:01;;;;;;;;;;;8.70;99.90;;;;;;4968439;28;19950;-87
2022/03/30 05:00:28;;;;;;;;;;;8.60;99.90;;;;;;4968139;28;19927;-89
2022/03/30 05:02:57;;;;;;;;;;;9.10;99.90;;;;;;4987204;28;19930;-87
2022/03/30 05:05:24;;;;;;;;;;;8.50;99.90;;;;;;4987799;28;19926;-87
2022/03/30 05:07:57;;;;;;;;;;;8.50;99.90;;;;;;4975732;28;19930;-87
2022/03/30 05:10:25;;;;;;;;;;;8.70;99.90;;;;;;4968399;29;19926;-87
2022/03/30 05:12:54;;;;;;;;;;;9.50;99.90;;;;;;4968478;28;20373;-87
2022/03/30 05:15:23;;;;;;;;;;;8.00;99.90;;;;;;4967887;29;19926;-87
2022/03/30 05:17:56;;;;;;;;;;;9.60;99.90;;;;;;4979958;28;19930;-87
2022/03/30 05:23:06;;;;;;;;;;;8.70;99.90;;;;;;4986723;28;19930;-87
2022/03/30 05:25:35;;;;;;;;;;;9.10;99.90;;;;;;4988707;28;19926;-87
2022/03/30 05:28:04;;;;;;;;;;;8.70;99.90;;;;;;4970908;28;19926;-88
2022/03/30 05:33:22;;;;;;;;;;;8.90;99.90;;;;;;4991130;28;19932;-88
2022/03/30 05:35:50;;;;;;;;;;;8.80;99.90;;;;;;4990501;28;19926;-88
2022/03/30 05:38:18;;;;;;;;;;;8.80;99.90;;;;;;4991163;28;19926;-86
2022/03/30 05:40:45;;;;;;;;;;;8.70;99.90;;;;;;4990967;28;19926;-87
2022/03/30 05:43:12;;;;;;;;;;;8.20;99.90;;;;;;4990556;28;19990;-87
2022/03/30 05:45:50;;;;;;;;;;;8.70;99.90;;;;;;4990660;28;20013;-87
2022/03/30 05:48:19;;;;;;;;;;;8.90;99.90;;;;;;4979401;23;19930;-87
2022/03/30 05:50:47;;;;;;;;;;;8.70;99.90;;;;;;4990381;28;19930;-88
2022/03/30 05:53:14;;;;;;;;;;;8.80;99.90;;;;;;4990913;28;20332;-87
2022/03/30 05:55:45;;;;;;;;;;;8.80;99.90;;;;;;4990902;28;19950;-87
2022/03/30 05:58:14;;;;;;;;;;;9.20;99.90;;;;;;4990775;28;19926;-87
2022/03/30 06:00:44;;;;;;;;;;;9.30;99.90;;;;;;4989237;28;19937;-90
2022/03/30 06:03:11;;;;;;;;;;;9.00;99.90;;;;;;4986083;28;19930;-91
2022/03/30 06:05:37;;;;;;;;;;;9.00;99.90;;;;;;4985767;28;19937;-89
2022/03/30 06:08:07;;;;;;;;;;;9.00;99.90;;;;;;4980006;28;19950;-87
2022/03/30 06:10:34;;;;;;;;;;;9.30;99.90;;;;;;4970143;29;19950;-88
2022/03/30 06:13:03;;;;;;;;;;;8.80;99.90;;;;;;4969585;29;19931;-88
2022/03/30 06:15:32;;;;;;;;;;;9.10;99.90;;;;;;4953403;29;19926;-89
2022/03/30 06:18:11;;;;;;;;;;;9.20;99.90;;;;;;4970779;29;19927;-87
2022/03/30 06:20:40;;;;;;;;;;;9.10;99.90;;;;;;4970254;29;19933;-87
2022/03/30 06:23:14;;;;;;;;;;;9.20;99.90;;;;;;4970804;29;19926;-87
2022/03/30 06:25:48;;;;;;;;;;;9.10;99.90;;;;;;4990039;23;20331;-88
2022/03/30 06:28:17;;;;;;;;;;;9.00;99.90;;;;;;4990206;28;20009;-87
2022/03/30 06:30:45;;;;;;;;;;;9.00;99.90;;;;;;4989900;28;19926;-88
2022/03/30 06:33:17;;;;;;;;;;;9.10;99.90;;;;;;4989334;28;19926;-88
2022/03/30 06:35:47;;;;;;;;;;;9.10;99.90;;;;;;4988848;28;20384;-89
2022/03/30 06:38:16;;;;;;;;;;;8.80;99.90;;;;;;4989959;28;19933;-88
2022/03/30 06:40:44;;;;;;;;;;;8.80;99.90;;;;;;4989483;28;19926;-88
2022/03/30 06:43:14;;;;;;;;;;;8.70;99.90;;;;;;4987831;28;19926;-89
2022/03/30 06:45:43;;;;;;;;;;;8.70;99.90;;;;;;4972042;28;19989;-89
2022/03/30 06:48:15;;;;;;;;;;;8.80;99.90;;;;;;4988618;28;19926;-88
2022/03/30 06:50:47;;;;;;;;;;;8.70;99.90;;;;;;4989373;28;19952;-90
2022/03/30 06:53:15;;;;;;;;;;;8.20;99.90;;;;;;4987834;28;19981;-88
2022/03/30 06:55:42;;;;;;;;;;;8.90;99.90;;;;;;4988377;28;19933;-88
2022/03/30 06:58:09;;;;;;;;;;;9.10;99.90;;;;;;4988982;28;19981;-92
2022/03/30 07:00:41;;;;;;;;;;;9.30;99.90;;;;;;4988955;28;19926;-90
2022/03/30 07:03:08;;;;;;;;;;;9.70;99.90;;;;;;4989886;28;19926;-89
2022/03/30 07:05:40;;;;;;;;;;;8.50;99.90;;;;;;4987554;28;19962;-89
2022/03/30 07:11:04;;;;;;;;;;;7.30;99.90;;;;;;4928960;29;19931;-91
2022/03/30 07:13:33;;;;;;;;;;;9.00;99.90;;;;;;4912236;29;19935;-89
2022/03/30 07:16:00;;;;;;;;;;;8.80;99.90;;;;;;4909477;29;19950;-89
2022/03/30 07:18:29;;;;;;;;;;;8.90;99.90;;;;;;4913442;29;20024;-88
2022/03/30 07:20:57;;;;;;;;;;;7.40;99.90;;;;;;4963070;29;19926;-89
2022/03/30 07:23:27;;;;;;;;;;;8.20;99.90;;;;;;4963877;29;19927;-89
2022/03/30 07:25:54;;;;;;;;;;;7.90;99.90;;;;;;4964205;29;19926;-88
2022/03/30 07:28:22;;;;;;;;;;;7.20;99.90;;;;;;4964472;29;19926;-87
2022/03/30 07:30:49;;;;;;;;;;;7.30;99.90;;;;;;4970258;29;19966;-88
2022/03/30 07:33:18;;;;;;;;;;;6.80;99.90;;;;;;4967582;28;20069;-86
2022/03/30 07:35:47;;;;;;;;;;;8.30;99.90;;;;;;4969636;29;19931;-88
2022/03/30 07:38:15;;;;;;;;;;;6.70;99.90;;;;;;4976815;28;19981;-87
2022/03/30 07:40:45;;;;;;;;;;;7.10;99.90;;;;;;4984696;28;19954;-87
2022/03/30 07:43:12;;;;;;;;;;;6.60;99.90;;;;;;4984909;28;19926;-86
2022/03/30 07:45:40;;;;;;;;;;;6.40;99.90;;;;;;4986298;28;19954;-88
2022/03/30 07:48:08;;;;;;;;;;;6.50;99.90;;;;;;4979895;28;19953;-85
2022/03/30 07:50:35;;;;;;;;;;;6.20;99.90;;;;;;4981632;28;20004;-87
2022/03/30 07:53:02;;;;;;;;;;;6.30;99.90;;;;;;4973549;28;19981;-90
2022/03/30 07:55:29;;;;;;;;;;;7.00;99.90;;;;;;4961767;28;19997;-87
2022/03/30 07:57:57;;;;;;;;;;;6.20;99.90;;;;;;4974320;28;19930;-88
2022/03/30 08:00:30;;;;;;;;;;;6.10;99.90;;;;;;4969169;28;20430;-87
2022/03/30 08:02:58;;;;;;;;;;;6.50;99.90;;;;;;4893057;28;19926;-89
2022/03/30 08:05:31;;;;;;;;;;;6.20;99.90;;;;;;4914303;28;21006;-90
2022/03/30 08:07:59;;;;;;;;;;;6.10;99.90;;;;;;4957463;28;19961;-91
2022/03/30 08:10:28;;;;;;;;;;;6.10;99.90;;;;;;4942766;28;19922;-89
2022/03/30 08:12:57;;;;;;;;;;;6.50;99.90;;;;;;4923371;28;19973;-90
2022/03/30 08:15:26;;;;;;;;;;;6.00;99.90;;;;;;4939907;28;19927;-91
2022/03/30 08:17:54;;;;;;;;;;;5.80;99.90;;;;;;4931571;28;19933;-92
2022/03/30 08:23:10;;;;;;;;;;;6.10;99.90;;;;;;4946180;28;19973;-91
2022/03/30 08:25:37;;;;;;;;;;;5.90;99.90;;;;;;4946513;28;19989;-94
2022/03/30 08:28:09;;;;;;;;;;;5.90;99.90;;;;;;4939647;28;19934;-89
2022/03/30 08:30:38;;;;;;;;;;;5.80;99.90;;;;;;4974282;28;20022;-90
2022/03/30 08:33:05;;;;;;;;;;;5.10;99.90;;;;;;4967781;28;20447;-89
2022/03/30 08:35:32;;;;;;;;;;;6.20;99.90;;;;;;4959445;28;19938;-91
2022/03/30 08:37:59;;;;;;;;;;;6.30;99.90;;;;;;4950265;28;19926;-88
2022/03/30 08:40:26;;;;;;;;;;;5.80;99.90;;;;;;4968447;28;19933;-89
2022/03/30 08:42:55;;;;;;;;;;;5.90;99.90;;;;;;4968360;28;19930;-88
2022/03/30 08:45:22;;;;;;;;;;;5.40;99.90;;;;;;4954718;28;19930;-87
2022/03/30 08:47:50;;;;;;;;;;;5.70;99.90;;;;;;4954691;28;19927;-89
2022/03/30 08:50:17;;;;;;;;;;;6.00;99.90;;;;;;4966797;28;19926;-90
2022/03/30 08:53:05;;;;;;;;;;;4.10;99.90;;;;;;4963951;28;19973;-88
2022/03/30 08:55:33;;;;;;;;;;;6.60;99.90;;;;;;4973086;28;19925;-87
2022/03/30 08:58:05;;;;;;;;;;;6.30;99.90;;;;;;4970381;28;20296;-89
2022/03/30 09:00:34;;;;;;;;;;;6.90;99.90;;;;;;4959039;28;19927;-88
2022/03/30 09:03:07;;;;;;;;;;;6.80;99.90;;;;;;4959911;28;19930;-91
2022/03/30 09:05:35;;;;;;;;;;;7.00;99.90;;;;;;4963760;28;20604;-86
2022/03/30 09:11:00;;;;;;;;;;;7.60;99.90;;;;;;4957877;28;19926;-91
2022/03/30 09:13:26;;;;;;;;;;;6.60;99.90;;;;;;4972185;28;19926;-90
2022/03/30 09:15:53;;;;;;;;;;;6.40;99.90;;;;;;4960019;28;19938;-85
2022/03/30 09:18:29;;;;;;;;;;;6.70;99.90;;;;;;4972529;28;19926;-89
2022/03/30 09:20:59;;;;;;;;;;;6.90;99.90;;;;;;4965230;28;19930;-89
2022/03/30 09:23:47;;;;;;;;;;;6.10;99.90;;;;;;4962229;28;19932;-90
2022/03/30 09:26:13;;;;;;;;;;;6.70;99.90;;;;;;4966603;28;19930;-87
2022/03/30 09:28:42;;;;;;;;;;;9.40;99.90;;;;;;4965024;28;19937;-86
2022/03/30 09:31:09;;;;;;;;;;;6.70;99.90;;;;;;4962147;28;20467;-88
2022/03/30 09:33:38;;;;;;;;;;;6.70;99.90;;;;;;4964670;28;19930;-86
2022/03/30 09:36:05;;;;;;;;;;;6.70;99.90;;;;;;4970002;28;19930;-88
2022/03/30 09:38:37;;;;;;;;;;;4.20;99.90;;;;;;4968634;28;20021;-86
2022/03/30 09:41:04;;;;;;;;;;;6.80;99.90;;;;;;4969406;28;19933;-89
2022/03/30 09:43:33;;;;;;;;;;;6.90;99.90;;;;;;4970553;28;20304;-86
2022/03/30 09:46:11;;;;;;;;;;;7.20;99.90;;;;;;4969153;28;19926;-87
2022/03/30 09:48:44;;;;;;;;;;;4.90;99.90;;;;;;4967493;28;20049;-86
2022/03/30 09:51:11;;;;;;;;;;;6.90;99.90;;;;;;4969418;28;19926;-87
2022/03/30 09:53:38;;;;;;;;;;;6.80;99.90;;;;;;4965205;28;19938;-86
2022/03/30 09:56:06;;;;;;;;;;;7.30;99.90;;;;;;4972406;28;20032;-86
2022/03/30 09:58:34;;;;;;;;;;;7.30;99.90;;;;;;4965652;28;19938;-89
2022/03/30 10:01:09;;;;;;;;;;;7.10;99.90;;;;;;4965347;28;19930;-87
2022/03/30 10:03:43;;;;;;;;;;;7.00;99.90;;;;;;4966996;28;20075;-86
2022/03/30 10:06:10;;;;;;;;;;;5.60;99.90;;;;;;4970165;28;19974;-82
2022/03/30 10:08:37;;;;;;;;;;;7.00;99.90;;;;;;4958940;28;19930;-84
2022/03/30 10:11:06;;;;;;;;;;;6.90;99.90;;;;;;4960733;28;19926;-88
2022/03/30 10:13:33;;;;;;;;;;;7.10;99.90;;;;;;4965633;28;19930;-84
2022/03/30 10:15:59;;;;;;;;;;;7.20;99.90;;;;;;4957254;28;19927;-87
2022/03/30 10:18:26;;;;;;;;;;;7.10;99.90;;;;;;4965147;28;19931;-87
2022/03/30 10:21:06;;;;;;;;;;;7.70;99.90;;;;;;4972222;28;19935;-88
2022/03/30 10:23:38;;;;;;;;;;;7.00;99.90;;;;;;4970213;28;19934;-89
2022/03/30 10:26:09;;;;;;;;;;;7.00;99.90;;;;;;4968792;28;19957;-87
2022/03/30 10:28:46;;;;;;;;;;;6.90;99.90;;;;;;4968667;28;19937;-88
2022/03/30 10:31:13;;;;;;;;;;;7.30;99.90;;;;;;4968289;28;19934;-89
2022/03/30 10:33:44;;;;;;;;;;;6.30;99.90;;;;;;4963400;28;20384;-89
2022/03/30 10:36:34;;;;;;;;;;;6.90;99.90;;;;;;4971716;28;19976;-88
2022/03/30 10:39:27;;;;;;;;;;;6.90;99.90;;;;;;4969562;28;20352;-86
2022/03/30 10:41:56;;;;;;;;;;;6.10;99.90;;;;;;4969678;28;19930;-88
2022/03/30 10:44:45;;;;;;;;;;;6.70;99.90;;;;;;4971401;28;20423;-87
2022/03/30 10:47:13;;;;;;;;;;;6.90;99.90;;;;;;4948756;28;20033;-90
2022/03/30 10:49:41;;;;;;;;;;;6.70;99.90;;;;;;4976586;28;19957;-86
2022/03/30 10:52:27;;;;;;;;;;;7.70;99.90;;;;;;4969707;28;19934;-85
2022/03/30 10:55:23;;;;;;;;;;;6.50;99.90;;;;;;4965282;28;19954;-86
2022/03/30 10:57:50;;;;;;;;;;;7.00;99.90;;;;;;4967558;28;19976;-86
2022/03/30 11:00:18;;;;;;;;;;;7.30;99.90;;;;;;4961530;28;19930;-89
2022/03/30 11:02:45;;;;;;;;;;;6.50;99.90;;;;;;4958417;28;19993;-90
2022/03/30 11:05:15;;;;;;;;;;;6.70;99.90;;;;;;4969252;28;19934;-89
2022/03/30 11:07:42;;;;;;;;;;;6.50;99.90;;;;;;4971570;28;19937;-90
2022/03/30 11:10:21;;;;;;;;;;;5.90;99.90;;;;;;4971925;28;20405;-87
2022/03/30 11:13:02;;;;;;;;;;;6.70;99.90;;;;;;4948270;28;20029;-88
2022/03/30 11:15:30;;;;;;;;;;;6.90;99.90;;;;;;4965873;28;19970;-90
2022/03/30 11:18:11;;;;;;;;;;;6.90;99.90;;;;;;4966188;28;19934;-89
2022/03/30 11:20:38;;;;;;;;;;;4.60;99.90;;;;;;4963152;28;19934;-90
2022/03/30 11:23:19;;;;;;;;;;;7.30;99.90;;;;;;4959215;28;19927;-88
2022/03/30 11:25:52;;;;;;;;;;;7.40;99.90;;;;;;4947969;28;20095;-90
2022/03/30 11:28:19;;;;;;;;;;;7.90;99.90;;;;;;4948825;28;19934;-88
2022/03/30 11:30:48;;;;;;;;;;;7.10;99.90;;;;;;4953991;28;19926;-86
2022/03/30 11:33:22;;;;;;;;;;;6.80;99.90;;;;;;4962631;28;20064;-87
2022/03/30 11:35:52;;;;;;;;;;;5.10;99.90;;;;;;4946594;28;19933;-87
2022/03/30 11:38:23;;;;;;;;;;;4.10;99.90;;;;;;4962666;28;19940;-87
2022/03/30 11:40:53;;;;;;;;;;;6.70;99.90;;;;;;4964212;28;19930;-88
2022/03/30 11:43:23;;;;;;;;;;;7.20;99.90;;;;;;4962011;28;19936;-87
2022/03/30 11:46:02;;;;;;;;;;;6.60;99.90;;;;;;4967862;28;19934;-90
2022/03/30 11:48:35;;;;;;;;;;;6.20;99.90;;;;;;4964988;28;19930;-89
2022/03/30 11:51:03;;;;;;;;;;;7.00;99.90;;;;;;4966340;28;19926;-86
2022/03/30 11:53:32;;;;;;;;;;;7.00;99.90;;;;;;4973706;28;19929;-85
2022/03/30 11:56:04;;;;;;;;;;;6.90;99.90;;;;;;4967507;28;19935;-91
2022/03/30 11:58:31;;;;;;;;;;;6.50;99.90;;;;;;4968548;28;19926;-86
2022/03/30 12:00:59;;;;;;;;;;;6.60;99.90;;;;;;4969585;28;19934;-88
2022/03/30 12:03:26;;;;;;;;;;;6.60;99.90;;;;;;4972914;28;19985;-87
2022/03/30 12:05:55;;;;;;;;;;;6.50;99.90;;;;;;4962993;28;20411;-87
2022/03/30 12:08:22;;;;;;;;;;;6.10;99.90;;;;;;4965159;28;19934;-89
2022/03/30 12:10:53;;;;;;;;;;;6.60;99.90;;;;;;4971798;28;19989;-87
2022/03/30 12:13:25;;;;;;;;;;;7.00;99.90;;;;;;4966466;28;19980;-90
2022/03/30 12:16:06;;;;;;;;;;;6.90;99.90;;;;;;4970183;28;19993;-89
2022/03/30 12:18:35;;;;;;;;;;;6.90;99.90;;;;;;4951224;28;19932;-88
2022/03/30 12:21:02;;;;;;;;;;;7.10;99.90;;;;;;4961656;28;19973;-84
2022/03/30 12:23:37;;;;;;;;;;;7.00;99.90;;;;;;4965080;28;19957;-87
2022/03/30 12:26:27;;;;;;;;;;;6.90;99.90;;;;;;4963306;28;19992;-89
2022/03/30 12:29:05;;;;;;;;;;;6.90;99.90;;;;;;4963182;28;19934;-89
2022/03/30 12:31:33;;;;;;;;;;;7.00;99.90;;;;;;4958230;28;19941;-88
2022/03/30 12:34:10;;;;;;;;;;;8.40;99.90;;;;;;4960301;28;19930;-87
2022/03/30 12:36:40;;;;;;;;;;;7.00;99.90;;;;;;4959838;28;19927;-88
2022/03/30 12:39:15;;;;;;;;;;;7.90;99.90;;;;;;4959366;28;21769;-89
2022/03/30 12:41:42;;;;;;;;;;;7.00;99.90;;;;;;4966974;28;20349;-86
2022/03/30 12:44:10;;;;;;;;;;;9.00;99.90;;;;;;4963335;28;19933;-88
2022/03/30 12:46:40;;;;;;;;;;;6.90;99.90;;;;;;4960960;28;20065;-89
2022/03/30 12:49:12;;;;;;;;;;;6.90;99.90;;;;;;4960578;28;19934;-88
2022/03/30 12:51:46;;;;;;;;;;;7.20;99.90;;;;;;4956068;28;22195;-89
2022/03/30 12:54:21;;;;;;;;;;;7.80;99.90;;;;;;4965652;28;19933;-90
2022/03/30 12:56:47;;;;;;;;;;;8.70;99.90;;;;;;4958921;28;20060;-86
2022/03/30 12:59:19;;;;;;;;;;;7.70;99.90;;;;;;4958404;28;20342;-89
2022/03/30 13:01:49;;;;;;;;;;;7.10;99.90;;;;;;4961532;28;19934;-86
2022/03/30 13:04:22;;;;;;;;;;;7.10;99.90;;;;;;4955117;28;19937;-87
2022/03/30 13:07:05;;;;;;;;;;;7.50;99.90;;;;;;4955435;28;19941;-87
2022/03/30 13:09:32;;;;;;;;;;;7.80;99.90;;;;;;4956931;28;19930;-86
2022/03/30 13:12:09;;;;;;;;;;;7.50;99.90;;;;;;4957050;28;19926;-86
2022/03/30 13:14:49;;;;;;;;;;;7.50;99.90;;;;;;4955532;28;19926;-89
2022/03/30 13:17:17;;;;;;;;;;;9.20;99.90;;;;;;4919949;28;20017;-86
2022/03/30 13:19:44;;;;;;;;;;;6.90;99.90;;;;;;4924699;28;19987;-89
2022/03/30 13:22:25;;;;;;;;;;;7.10;99.90;;;;;;4928239;28;20204;-89
2022/03/30 13:24:54;;;;;;;;;;;5.00;99.90;;;;;;4922975;28;21018;-89
2022/03/30 13:27:22;;;;;;;;;;;6.70;99.90;;;;;;4926358;28;19992;-89
2022/03/30 13:29:56;;;;;;;;;;;6.80;99.90;;;;;;4931469;28;19931;-88
2022/03/30 13:32:25;;;;;;;;;;;7.10;99.90;;;;;;4942479;28;19937;-85
2022/03/30 13:34:57;;;;;;;;;;;6.90;99.90;;;;;;4944002;28;20021;-88
2022/03/30 13:37:26;;;;;;;;;;;7.10;99.90;;;;;;4965710;28;19931;-89
2022/03/30 13:39:55;;;;;;;;;;;7.10;99.90;;;;;;4958593;28;19930;-89
2022/03/30 13:42:22;;;;;;;;;;;6.80;99.90;;;;;;4963024;28;19969;-88
2022/03/30 13:44:51;;;;;;;;;;;7.10;99.90;;;;;;4932802;28;20436;-91
2022/03/30 13:47:18;;;;;;;;;;;6.10;99.90;;;;;;4926398;28;19942;-89
2022/03/30 13:49:46;;;;;;;;;;;7.00;99.90;;;;;;4959103;28;19931;-88
2022/03/30 13:52:14;;;;;;;;;;;6.90;99.90;;;;;;4960119;28;19937;-85
2022/03/30 13:54:48;;;;;;;;;;;7.30;99.90;;;;;;4965643;28;19949;-88
2022/03/30 13:57:14;;;;;;;;;;;7.30;99.90;;;;;;4967783;28;20388;-88
2022/03/30 13:59:47;;;;;;;;;;;6.90;99.90;;;;;;4975037;28;19927;-89
2022/03/30 14:02:15;;;;;;;;;;;5.80;99.90;;;;;;4953085;28;20018;-82
2022/03/30 14:04:42;;;;;;;;;;;4.60;99.90;;;;;;4967247;28;20001;-82
2022/03/30 14:07:09;;;;;;;;;;;6.70;99.90;;;;;;4949365;28;19926;-82
2022/03/30 14:09:38;;;;;;;;;;;6.90;99.90;;;;;;4929172;28;19948;-82
2022/03/30 14:12:04;;;;;;;;;;;7.30;99.90;;;;;;4958462;28;19930;-82
2022/03/30 14:14:31;;;;;;;;;;;7.10;99.90;;;;;;4969992;28;19990;-83
2022/03/30 14:17:01;;;;;;;;;;;7.30;99.90;;;;;;4966250;28;20410;-83
2022/03/30 14:19:30;;;;;;;;;;;7.90;99.90;;;;;;4944252;28;20088;-83
2022/03/30 14:21:57;;;;;;;;;;;7.40;99.90;;;;;;4927321;28;19972;-81
2022/03/30 14:24:24;;;;;;;;;;;7.40;99.90;;;;;;4946478;28;19977;-82
2022/03/30 14:26:51;;;;;;;;;;;7.40;99.90;;;;;;4951924;28;19934;-82
2022/03/30 14:29:18;;;;;;;;;;;7.50;99.90;;;;;;4907884;28;20724;-82
2022/03/30 14:32:07;;;;;;;;;;;7.60;99.90;;;;;;4928957;28;20644;-91
2022/03/30 14:34:38;;;;;;;;;;;6.50;99.90;;;;;;4876279;28;19934;-90
2022/03/30 14:37:07;;;;;;;;;;;8.10;99.90;;;;;;4931151;28;19934;-89
2022/03/30 14:39:35;;;;;;;;;;;7.10;99.90;;;;;;4934911;28;19926;-88
2022/03/30 14:42:03;;;;;;;;;;;7.30;99.90;;;;;;4934726;28;19930;-86
2022/03/30 14:44:37;;;;;;;;;;;6.80;99.90;;;;;;4961929;28;19927;-86
2022/03/30 14:47:07;;;;;;;;;;;6.70;99.90;;;;;;4973218;28;20273;-90
2022/03/30 14:49:34;;;;;;;;;;;7.20;99.90;;;;;;4971218;28;19927;-91
2022/03/30 14:52:10;;;;;;;;;;;6.70;99.90;;;;;;4947397;28;20202;-86
2022/03/30 14:54:38;;;;;;;;;;;8.30;99.90;;;;;;4972809;28;19941;-89
2022/03/30 14:57:05;;;;;;;;;;;7.10;99.90;;;;;;4949544;28;20404;-93
2022/03/30 14:59:32;;;;;;;;;;;6.70;99.90;;;;;;4952235;28;19930;-87
2022/03/30 15:01:59;;;;;;;;;;;6.60;99.90;;;;;;4964487;28;19927;-87
2022/03/30 15:04:25;;;;;;;;;;;7.90;99.90;;;;;;4965115;28;20328;-87
2022/03/30 15:06:52;;;;;;;;;;;5.70;99.90;;;;;;4966478;28;20024;-86
2022/03/30 15:09:21;;;;;;;;;;;6.70;99.90;;;;;;4971425;28;20018;-89